Tiempo atmosférico en la estación meteorológica de Sevilla Aeropuerto, Sevilla (34 m.)



Fecha
DESCASC
Temp. máxima en grados centígrados (hora)
DESCASC
Temp. mínima en grados centígrados (hora)
DESCASC
Temp. media en grados centígrados
DESCASC
Racha de viento máxima en m/sg (hora)
DESCASC
Velocidad máxima media en intervalos de 10 minutos(hora)
DESCASC
Precipitaciones diarias en mm
DESCASC
Precipitaciones de 00:00 a 06:00 en mm
DESCASC
Precipitaciones de 06:00 a 12:00 en mm
DESCASC
Precipitaciones de 12:00 a 18:00 en mm
DESCASC
Precipitaciones de 18:00 a 24:00 en mm
DESCASC
16-01-2020 18.7 (15:40) 7.1 (08:50) 12.9 6.11 (17:00) 4.17 (17:10) 0 0 0 0 0
15-01-2020 18.8 (16:20) 5.2 (07:50) 12 7.78 (16:10) 4.72 (16:30) 0 0 0 0 0
14-01-2020 15.3 (17:00) 5.1 (09:20) 10.2 4.72 (03:10) 3.61 (09:50) 0 0 0 0 0
13-01-2020 15.8 (16:30) 3.1 (07:10) 9.5 6.11 (06:40) 3.89 (06:30) 0 0 0 0 0
12-01-2020 17 (16:10) 3.7 (08:40) 10.4 5 (10:30) 3.89 (11:10) 0 0 0 0 0
11-01-2020 16.2 (16:40) 5.4 (00:00) 10.8 8.89 (12:20) 6.39 (12:20) 0 0 0 0 0
10-01-2020 16.1 (16:30) 4.2 (00:00) 10.2 7.78 (14:40) 4.72 (12:50) 0 0 0 0 0
09-01-2020 16.2 (16:20) 4.2 (00:00) 10.2 5.83 (15:40) 2.78 (12:00) 0 0 0 0 0
08-01-2020 18.7 (16:40) 4.9 (00:00) 11.8 -- (--) -- (--) 0 0 0 0 0
07-01-2020 18.9 (17:40) 4.9 (00:00) 11.9 8.89 (12:20) 5.83 (12:20) 0 0 0 0 0
06-01-2020 17 (17:00) 4.6 (00:00) 10.8 4.72 (10:40) 3.61 (10:40) 0 0 0 0 0
05-01-2020 16.3 (15:50) 7.4 (00:00) 11.8 9.72 (09:40) 7.22 (09:40) 0 0 0 0 0
04-01-2020 14.1 (16:30) 4.9 (00:00) 9.5 8.33 (11:40) 6.11 (12:10) 0 0 0 0 0
03-01-2020 14.5 (16:40) 6.5 (00:00) 10.5 6.67 (13:00) 3.06 (13:10) 0 0 0 0 0
02-01-2020 16.4 (16:30) 5.3 (00:00) 10.8 -- (--) -- (--) 0 0 0 0 0
01-01-2020 17.5 (16:30) 6.3 (00:00) 11.9 5.83 (15:30) 3.89 (10:30) 0 0 0 0 0
31-12-2019 16.7 (16:20) 7.1 (00:00) 11.9 9.17 (10:00) 6.67 (10:00) 0 0 0 0 0
30-12-2019 16.9 (16:40) 6.8 (00:00) 11.8 6.67 (10:00) 5 (10:50) 0 0 0 0 0
29-12-2019 19 (15:20) 8.7 (00:00) 13.8 8.33 (09:50) 5.83 (09:50) 0 0 0 0 0
28-12-2019 21 (16:40) 9.3 (00:00) 15.2 8.33 (10:20) 5.56 (12:20) 0 0 0 0 0
27-12-2019 21.9 (15:10) 11.8 (00:00) 16.8 9.17 (22:20) 6.39 (22:10) 0 0 0 0 0
26-12-2019 20.8 (15:50) 9.9 (00:00) 15.3 6.67 (11:30) 5 (11:40) 0 0 0 0 0
25-12-2019 20.5 (16:30) 9.3 (00:00) 14.9 6.11 (05:20) 4.44 (05:40) 0 0 0 0 0
24-12-2019 20.8 (15:50) 11.3 (23:59) 16 12.5 (05:40) 8.89 (10:40) 0 0 0 0 0
23-12-2019 17.8 (16:30) 12.3 (00:00) 15 7.78 (13:40) 5.56 (12:50) 0 0 0 0 0
22-12-2019 18.2 (16:40) 10.7 (08:10) 14.5 7.78 (16:50) 5.83 (22:00) 0 0 0 0 0
21-12-2019 18.7 (17:10) 15.7 (23:50) 17.2 17.5 (05:10) 11.39 (06:20) 1.3 0 0.6 0.7 0
20-12-2019 18.4 (11:20) 17.2 (00:00) 17.8 26.39 (03:50) 16.39 (03:00) 36.4 23.8 8.5 3.5 0.6
19-12-2019 18.1 (23:59) 13.1 (05:10) 15.6 20 (23:30) 13.89 (23:10) 37.1 10.4 9.5 3.1 14.1

Gráficas

Temp. máximas Temp. mínimas Temp. medias Precipitaciones Rachas de viento máximas Velocidades máximas media en intervalos de 10 minutos

Datos horarios

Fecha y hora oficial Temperatura (ºC) Velocidad del viento (km/h) Dirección del viento Racha (km/h) Dirección de racha Precipitación (mm) Presión (hPa) Tendencia (hPa) Humedad (%)
2020-01-17 23:00:00 10.7 5 Noroeste 8 Noroeste 0 1028.9 0.6 92
2020-01-17 22:00:00 11.6 2 Nordeste 8 Nordeste 0 1029.1 0.9 90
2020-01-17 21:00:00 12.2 5 Nordeste 11 Este 0 1028.9 0.9 89
2020-01-17 20:00:00 13.4 9 Nordeste 13 Nordeste 0 1028.3 0.5 85
2020-01-17 19:00:00 15.1 6 Nordeste 13 Norte 0 1028.2 0.6 79
2020-01-17 18:00:00 17.3 0 Calma 8 Norte 0 1028 -0.1 69
2020-01-17 17:00:00 17.7 5 Oeste 8 Oeste 0 1027.8 -0.9 68
2020-01-17 16:00:00 17.7 2 Norte 8 Norte 0 1027.6 -2.1 69
2020-01-17 15:00:00 16.6 6 Sudeste 13 Sudeste 0 1028.1 -2.1 73
2020-01-17 14:00:00 15.2 7 Este 13 Sudeste 0 1028.7 -1.2 79
2020-01-17 13:00:00 14.1 10 Nordeste 15 Este 0 1029.7 0.3 84
2020-01-17 12:00:00 13.6 7 Nordeste 13 Este 0 1030.2 1.5 86
2020-01-17 11:00:00 12.7 6 Norte 9 Nordeste 0 1029.9 2 89
2020-01-17 10:00:00 11.3 4 Norte 8 Norte 0 1029.4 2.3 92
2020-01-17 09:00:00 11.1 7 Nordeste 9 Norte 0.2 1028.7 2 91
2020-01-17 08:00:00 11.2 6 Nordeste 9 Nordeste 0 1027.9 1.3 90
2020-01-17 07:00:00 11.2 5 Nordeste 9 Sudeste 0 1027.1 0.7 87
2020-01-17 06:00:00 10.7 6 Este 9 Nordeste 0 1026.7 0.3 89
2020-01-17 05:00:00 10.2 6 Sudeste 9 Sudeste 0 1026.6 0.3 89
2020-01-17 04:00:00 9.8 7 Sudeste 9 Sudeste 0 1026.4 -0.4 89
2020-01-17 03:00:00 9.8 4 Este 9 Nordeste 0 1026.4 -0.1 88
2020-01-17 02:00:00 10 0 Calma 8 Sudoeste 0 1026.3 0.3 86
2020-01-17 01:00:00 11.1 4 Sudoeste 13 Sur 0 1026.8 1.3 80
2020-01-17 00:00:00 12.1 11 Sur 15 Sur 0 1026.5 1.2 76
2020-01-16 23:00:00 11.4 9 Sur 13 Sur 0 1026 1 85
2020-01-16 22:00:00 11.7 7 Sur 15 Sur 0 1025.5 1.3 86
2020-01-16 21:00:00 13.7 9 Sudoeste 22 Sudoeste 0 1025.3 1.6 79
2020-01-16 20:00:00 14.6 13 Sudoeste 18 Sudoeste 0 1025 1.3 67
2020-01-16 19:00:00 15.2 9 Sudoeste 13 Sudoeste 0 1024.2 0.7 55
2020-01-16 18:00:00 17.4 11 Sudoeste 21 Sudoeste 0 1023.7 -0.2 44
2020-01-16 17:00:00 18.6 15 Sudoeste 22 Sudoeste 0 1023.7 -0.7 34
2020-01-16 16:00:00 18.6 10 Sudoeste 15 Sudoeste 0 1023.5 -1.8 34
2020-01-16 15:00:00 18 8 Oeste 15 Oeste 0 1023.9 -1.8 39
2020-01-16 14:00:00 17.3 4 Sur 8 Este 0 1024.4 -1.5 44
2020-01-16 13:00:00 15.1 2 Oeste 9 Oeste 0 1025.3 -0.2 58
2020-01-16 12:00:00 12.9 5 Nordeste 11 Nordeste 0 1025.7 0.9 66
2020-01-16 11:00:00 10.4 9 Nordeste 17 Nordeste 0 1025.9 1.6 73
2020-01-16 10:00:00 8.4 8 Nordeste 17 Este 0 1025.5 1.4 80
2020-01-16 09:00:00 7.1 10 Nordeste 18 Nordeste 0 1024.8 0.9 86
2020-01-16 08:00:00 7.6 10 Nordeste 17 Este 0 1024.3 0.4 86
2020-01-16 07:00:00 8 10 Nordeste 17 Este 0 1024.1 -0.1 89
2020-01-16 06:00:00 7.6 6 Nordeste 13 Nordeste 0 1023.9 -0.2 89
2020-01-16 05:00:00 8.4 5 Norte 9 Nordeste 0 1023.9 -0.4 93
2020-01-16 04:00:00 8.7 4 Norte 9 Sudeste 0 1024.2 -0.3 92
2020-01-16 03:00:00 8.2 9 Sudeste -- -- 0 1024.1 -0.6 92
2020-01-16 02:00:00 8.9 4 Sudeste 13 Este 0 1024.3 0.1 93
2020-01-16 01:00:00 9.3 11 Sudeste 13 Sudeste 0 1024.5 0.5 93
2020-01-16 00:00:00 9.7 6 Nordeste 11 Nordeste 0 1024.7 0.7 92
2020-01-15 23:00:00 10.5 6 Sur 11 Sur 0 1024.2 0.6 88
2020-01-15 22:00:00 11 9 Sudeste 11 Sudeste 0 1024 0.7 89
2020-01-15 21:00:00 11.9 7 Sudeste 9 Sudeste 0 1024 1.1 87
2020-01-15 20:00:00 14.1 5 Sur 11 Sur 0 1023.6 1.1 81
2020-01-15 19:00:00 16.1 5 Sur 18 Sudoeste 0 1023.3 1.1 73
2020-01-15 18:00:00 17.5 13 Sudoeste 26 Sudoeste 0 1022.9 0.6 66
2020-01-15 17:00:00 18.4 17 Sudoeste 28 Sudoeste 0 1022.5 -0.4 61
2020-01-15 16:00:00 17.8 9 Sur 17 Sur 0 1022.2 -1.3 63
2020-01-15 15:00:00 17.3 3 Este 11 Norte 0 1022.3 -1.7 63
2020-01-15 14:00:00 15.9 5 Noroeste 24 Norte 0 1022.9 -0.7 64
2020-01-15 13:00:00 14.5 4 Nordeste 9 Norte 0 1023.5 0.6 68
2020-01-15 12:00:00 11.5 2 Norte 9 Noroeste 0 1024 1.5 75
2020-01-15 11:00:00 9.7 3 Noroeste 9 Norte 0 1023.6 1.4 78
2020-01-15 10:00:00 7.2 4 Nordeste 13 Este 0 1022.9 1.4 85
2020-01-15 09:00:00 5.3 10 Este 15 Este 0 1022.5 1.6 91
2020-01-15 08:00:00 5.4 9 Nordeste 17 Nordeste 0 1022.2 1.2 91
2020-01-15 07:00:00 5.4 0 Calma 11 Nordeste 0 1021.5 0.4 92
2020-01-15 06:00:00 5.8 4 Este 8 Norte 0 1020.9 -0.3 92
2020-01-15 05:00:00 5.9 2 Norte 9 Nordeste 0 1021 -0.2 92
2020-01-15 04:00:00 6.2 4 Nordeste 11 Norte 0 1021.1 -0.4 92
2020-01-15 03:00:00 6.5 0 Calma 5 Norte 0 1021.2 -0.5 90
2020-01-15 02:00:00 7.2 4 Nordeste 9 Nordeste 0 1021.2 -0.3 88
2020-01-15 01:00:00 8.1 5 Nordeste 9 Sudeste 0 1021.5 0.2 85
2020-01-15 00:00:00 8.3 9 Sudeste -- -- 0 1021.7 0.4 84
2020-01-14 23:00:00 8 9 Sudeste 11 Sudeste 0 1021.5 0.4 85
2020-01-14 22:00:00 8.9 8 Sudeste 11 Sudeste 0 1021.3 0.6 84
2020-01-14 21:00:00 9.8 0 Calma 11 Sudeste 0 1021.3 0.7 80
2020-01-14 20:00:00 -- -- -- -- -- 0 1021.1 0.9 --
2020-01-14 19:00:00 12.3 5 Sudeste 9 Oeste 0 1020.7 0.6 67
2020-01-14 18:00:00 14.5 6 Sudoeste 13 Sudoeste 0 1020.6 0.4 54
2020-01-14 17:00:00 15.2 3 Sudoeste 13 Sudoeste 0 1020.2 -0.7 56
2020-01-14 16:00:00 14.7 8 Sudoeste 15 Oeste 0 1020.1 -2 56
2020-01-14 15:00:00 14.9 6 Oeste 13 Oeste 0 1020.2 -2.4 60
2020-01-14 14:00:00 13.7 4 Noroeste 11 Norte 0 1020.9 -1.5 65
2020-01-14 13:00:00 12.1 0 Calma 9 Noroeste 0 1022.1 0.4 68
2020-01-14 12:00:00 9.9 5 Nordeste 13 Norte 0 1022.6 1.3 74
2020-01-14 11:00:00 8 10 Nordeste 15 Nordeste 0 1022.4 1.2 81
2020-01-14 10:00:00 5.7 12 Nordeste 17 Nordeste 0 1021.7 0.9 90
2020-01-14 09:00:00 5.2 11 Norte 15 Nordeste 0 1021.3 0.8 92
2020-01-14 08:00:00 5.8 5 Nordeste 11 Norte 0 1021.2 0.6 91
2020-01-14 07:00:00 5.4 7 Norte 13 Nordeste 0 1020.8 -0.1 92
2020-01-14 06:00:00 5.7 10 Nordeste 13 Nordeste 0 1020.5 -0.7 91
2020-01-14 05:00:00 5.7 7 Norte 9 Norte 0 1020.6 -0.9 90
2020-01-14 04:00:00 6 5 Nordeste 17 Nordeste 0 1020.9 -0.8 89
2020-01-14 03:00:00 5.6 6 Este 11 Norte 0 1021.2 -0.6 91
2020-01-14 02:00:00 5.5 5 Noroeste 9 Norte 0 1021.5 -0.4 89
2020-01-14 01:00:00 6.2 0 Calma 8 Sudeste 0 1021.7 0.1 88
2020-01-14 00:00:00 6.6 7 Sudeste 9 Sudeste 0 1021.8 -0.1 85
2020-01-13 23:00:00 7.7 2 Norte 11 Sudeste 0 1021.9 -0.1 85
2020-01-13 22:00:00 7.5 0 Calma 9 Norte 0 1021.6 -0.4 86
2020-01-13 21:00:00 8.8 0 Calma -- -- 0 1021.9 -0.2 81
2020-01-13 20:00:00 9.3 13 Sur 13 Sur 0 1022 0.1 79
2020-01-13 19:00:00 11.9 5 Sur 9 Noroeste 0 1022 0.1 67
2020-01-13 18:00:00 14.4 8 Noroeste 21 Norte 0 1022.1 -0.2 58
2020-01-13 17:00:00 15.3 3 Noroeste 11 Oeste 0 1021.9 -1.3 53
2020-01-13 16:00:00 15.4 4 Noroeste 9 Noroeste 0 1021.9 -2.6 53
2020-01-13 15:00:00 14.8 4 Noroeste 9 Oeste 0 1022.3 -3.1 55
2020-01-13 14:00:00 14.2 6 Sudeste 15 Norte 0 1023.2 -2.1 57
2020-01-13 13:00:00 11.8 4 Nordeste 15 Norte 0 1024.5 0 67
2020-01-13 12:00:00 9.6 11 Nordeste 17 Este 0 1025.4 1 74
2020-01-13 11:00:00 7.5 12 Nordeste 17 Nordeste 0 1025.3 1.3 81
2020-01-13 10:00:00 4.8 10 Nordeste 15 Nordeste 0 1024.5 0.6 89
2020-01-13 09:00:00 3.7 10 Norte 13 Norte 0 1024.4 0.7 91
2020-01-13 08:00:00 3.8 8 Nordeste 15 Este 0 1024 -0.1 90
2020-01-13 07:00:00 3.3 12 Nordeste 22 Nordeste 0 1023.9 -0.6 92
2020-01-13 06:00:00 3.7 10 Nordeste 15 Nordeste 0 1023.7 -0.9 91
2020-01-13 05:00:00 4.3 5 Nordeste 11 Nordeste 0 1024.1 -1 90
2020-01-13 04:00:00 5.1 4 Nordeste 17 Nordeste 0 1024.5 -1.2 87
2020-01-13 03:00:00 4.6 9 Nordeste 13 Nordeste 0 1024.6 -1.4 89
2020-01-13 02:00:00 5.3 5 Norte 9 Oeste 0 1025.1 -1 88
2020-01-13 01:00:00 6.9 6 Oeste 21 Este 0 1025.7 -0.2 81
2020-01-13 00:00:00 7.7 13 Este 18 Este 0 1026 0.2 81
2020-01-12 23:00:00 8.1 7 Nordeste 11 Este 0 1026.1 0.4 78
2020-01-12 22:00:00 7.9 6 Nordeste 8 Nordeste 0 1025.9 0.5 81
2020-01-12 21:00:00 8.6 2 Nordeste 8 Nordeste 0 1025.8 0.7 76
2020-01-12 20:00:00 10.2 2 Este 8 Este 0 1025.7 0.5 71
2020-01-12 19:00:00 12.3 5 Este -- -- 0 1025.4 0.2 65
2020-01-12 18:00:00 16.6 4 Este 9 Sudeste 0 1025.1 -0.6 40
2020-01-12 17:00:00 16.5 6 Nordeste 15 Este 0 1025.2 -1.5 40
2020-01-12 16:00:00 16.3 4 Este 13 Nordeste 0 1025.2 -2.9 47
2020-01-12 15:00:00 15.3 7 Nordeste 15 Nordeste 0 1025.7 -3.5 55
2020-01-12 14:00:00 14.3 7 Nordeste 18 Nordeste 0 1026.7 -2.3 61
2020-01-12 13:00:00 12.3 10 Nordeste 18 Norte 0 1028.1 -0.4 68
2020-01-12 12:00:00 10.1 13 Nordeste 18 Norte 0 1029.2 1 73
2020-01-12 11:00:00 8 14 Nordeste 18 Nordeste 0 1029 0.9 79
2020-01-12 10:00:00 5.4 12 Nordeste 15 Nordeste 0 1028.5 0.8 87
2020-01-12 09:00:00 3.8 9 Nordeste 13 Nordeste 0 1028.2 0.7 91
2020-01-12 08:00:00 4 11 Nordeste 15 Nordeste 0 1028.1 0.4 90
2020-01-12 07:00:00 4.4 10 Nordeste 13 Nordeste 0 1027.7 -0.3 90
2020-01-12 06:00:00 4.1 7 Nordeste 15 Nordeste 0 1027.5 -0.2 90
2020-01-12 05:00:00 4.4 8 Nordeste 11 Nordeste 0 1027.7 0.3 89
2020-01-12 04:00:00 4.6 0 Calma 11 Nordeste 0 1028 0.3 88
2020-01-12 03:00:00 4.8 7 Norte 9 Norte 0 1027.7 0.1 88
2020-01-12 02:00:00 5.2 0 Calma 9 Sur 0 1027.4 0.1 87
2020-01-12 01:00:00 6.3 3 Nordeste 9 Sur 0 1027.7 0.5 82
2020-01-12 00:00:00 6.7 4 Norte 11 Este 0 1027.6 0.7 80
2020-01-11 23:00:00 7 4 Norte 9 Nordeste 0 1027.3 0.7 81
2020-01-11 22:00:00 8.1 6 Norte 8 Norte 0 1027.2 1.1 77
2020-01-11 21:00:00 8.7 3 Este 8 Sudeste 0 1026.9 1.3 74
2020-01-11 20:00:00 9.8 6 Este -- -- 0 1026.6 1.3 70
2020-01-11 19:00:00 13.2 5 Nordeste 13 Norte 0 1026.1 0.7 58
2020-01-11 18:00:00 15.5 7 Nordeste 13 Nordeste 0 1025.6 0.1 45
2020-01-11 17:00:00 16.2 7 Nordeste 13 Nordeste 0 1025.3 -1.1 39
2020-01-11 16:00:00 15.8 9 Nordeste 26 Nordeste 0 1025.4 -1.7 41
2020-01-11 15:00:00 15.2 14 Nordeste 24 Este 0 1025.5 -2.2 44
2020-01-11 14:00:00 14.3 15 Este 26 Nordeste 0 1026.4 -1.2 46
2020-01-11 13:00:00 13.4 19 Nordeste 32 Este 0 1027.1 0.2 48
2020-01-11 12:00:00 12.1 21 Nordeste 30 Este 0 1027.7 1.4 51
2020-01-11 11:00:00 9.9 14 Nordeste 21 Nordeste 0 1027.6 1.7 61
2020-01-11 10:00:00 7.1 8 Norte 17 Nordeste 0 1026.9 1.5 73
2020-01-11 09:00:00 5.7 11 Nordeste 21 Nordeste 0 1026.3 1.2 76
2020-01-11 08:00:00 6.3 13 Este 18 Nordeste 0 1025.9 0.7 73
2020-01-11 07:00:00 6.2 10 Nordeste 13 Este 0 1025.4 0.2 74
2020-01-11 06:00:00 6.6 12 Nordeste 17 Nordeste 0 1025.1 -0.2 72
2020-01-11 05:00:00 6 10 Nordeste 15 Este 0 1025.2 0.2 76
2020-01-11 04:00:00 6.8 10 Nordeste 13 Nordeste 0 1025.2 0.3 72
2020-01-11 03:00:00 6.6 6 Nordeste 11 Nordeste 0 1025.3 0.3 75
2020-01-11 02:00:00 6.5 9 Nordeste 13 Nordeste 0 1025 0.1 77
2020-01-11 01:00:00 7.6 8 Este 15 Nordeste 0 1024.9 0 74
2020-01-11 00:00:00 7.5 5 Este 15 Nordeste 0 1025 0.7 77
2020-01-10 23:00:00 8.7 8 Nordeste 18 Nordeste 0 1024.9 1.4 73
2020-01-10 22:00:00 10.3 15 Nordeste 18 Nordeste 0 1024.9 1.8 68
2020-01-10 21:00:00 10.8 4 Nordeste 15 Nordeste 0 1024.3 2 73
2020-01-10 20:00:00 10.8 7 Este 21 Nordeste 0 1023.5 1.4 80
2020-01-10 19:00:00 13 3 Nordeste 15 Norte 0 1023.1 1.3 70
2020-01-10 18:00:00 15.5 4 Nordeste 11 Nordeste 0 1022.3 0 59
2020-01-10 17:00:00 15.8 6 Nordeste 24 Este 0 1022.1 -0.8 55
2020-01-10 16:00:00 15.5 11 Este 24 Este 0 1021.8 -1.7 58
2020-01-10 15:00:00 15.2 13 Nordeste 28 Nordeste 0 1022.3 -2.2 53
2020-01-10 14:00:00 14.2 13 Nordeste 22 Nordeste 0 1022.9 -1.9 53
2020-01-10 13:00:00 12.8 14 Norte 26 Norte 0 1023.5 -0.9 63
2020-01-10 12:00:00 10.4 13 Norte 18 Norte 0 1024.5 0.8 84
2020-01-10 11:00:00 7.3 5 Nordeste 11 Nordeste 0 1024.8 1.6 99
2020-01-10 10:00:00 4.9 6 Nordeste 9 Nordeste 0 1024.4 1.4 98
2020-01-10 09:00:00 4.7 6 Norte 9 Norte 0 1023.7 0.8 96
2020-01-10 08:00:00 6 0 Calma 5 Norte 0 1023.2 0.1 95
2020-01-10 07:00:00 7 4 Oeste 5 Sudoeste 0 1023 -0.5 94
2020-01-10 06:00:00 7.5 0 Calma 5 Oeste 0 1022.9 -0.6 95
2020-01-10 05:00:00 6.8 3 Sudeste 9 Norte 0 1023.1 -0.7 96
2020-01-10 04:00:00 6.3 7 Norte 9 Norte 0 1023.5 -0.5 95
2020-01-10 03:00:00 6.5 5 Oeste 5 Oeste 0 1023.5 -0.8 94
2020-01-10 02:00:00 6.8 2 Noroeste 9 Sur 0 1023.8 -0.7 94
2020-01-10 01:00:00 7 0 Calma 11 Sur 0 1024 -0.2 93
2020-01-10 00:00:00 7.1 5 Sur -- -- 0 1024.3 0.3 91
2020-01-09 23:00:00 8.2 3 Sudeste 8 Nordeste 0 1024.5 0.7 87
2020-01-09 22:00:00 9.4 5 Norte 8 Norte 0 1024.2 0.4 86
2020-01-09 21:00:00 9.6 4 Sur 11 Sudoeste 0 1024 0.8 85
2020-01-09 20:00:00 12.2 9 Sudoeste 11 Sudoeste 0 1023.8 0.7 75
2020-01-09 19:00:00 13.3 6 Sur 9 Sudoeste 0 1023.8 0.3 70
2020-01-09 18:00:00 15.2 9 Sudoeste 13 Oeste 0 1023.2 -0.2 61
2020-01-09 17:00:00 16 9 Sudoeste 17 Sur 0 1023.1 -1.3 58
2020-01-09 16:00:00 16 8 Sudoeste 21 Oeste 0 1023.5 -1.6 56
2020-01-09 15:00:00 15.6 4 Sudoeste 13 Norte 0 1023.4 -2.9 59
2020-01-09 14:00:00 14.1 4 Noroeste 9 Noroeste 0 1024.4 -1.6 65
2020-01-09 13:00:00 13.2 4 Este 13 Este 0 1025.1 -0.4 70
2020-01-09 12:00:00 10.7 10 Norte 13 Nordeste 0 1026.3 1.4 77
2020-01-09 11:00:00 8.3 4 Nordeste 11 Noroeste 0 1026 1.4 85
2020-01-09 10:00:00 5.6 4 Noroeste 5 Oeste 0 1025.5 1.2 91
2020-01-09 09:00:00 4.3 2 Noroeste 9 Este 0 1024.9 0.6 92
2020-01-09 08:00:00 4.4 7 Norte 9 Nordeste 0 1024.6 0.3 93
2020-01-09 07:00:00 4.4 6 Nordeste 9 Nordeste 0 1024.3 -0.1 94
2020-01-09 06:00:00 4.5 5 Nordeste 8 Nordeste 0 1024.3 -0.3 94
2020-01-09 05:00:00 4.9 5 Norte 9 Nordeste 0 1024.3 -0.3 94
2020-01-09 04:00:00 5.5 3 Norte 8 Sur 0 1024.4 -0.2 93
2020-01-09 03:00:00 -- -- -- -- -- 0 1024.6 0 --
2020-01-09 02:00:00 6.1 4 Sur 11 Sur 0 1024.6 0.3 91
2020-01-09 01:00:00 5.9 10 Sudeste 13 Sudeste 0 1024.6 0.3 90
2020-01-09 00:00:00 7.4 4 Norte 5 Norte 0 1024.6 0.8 86
2020-01-08 23:00:00 7.8 4 Sudeste -- -- 0 1024.3 0.8 85
2020-01-08 22:00:00 8.2 7 Sur 9 Sur 0 1024.3 1 84
2020-01-08 21:00:00 9.3 7 Sudeste 9 Sudeste 0 1023.8 0.5 83
2020-01-08 20:00:00 10.7 9 Sudeste -- -- 0 1023.5 0.2 79
2020-01-08 19:00:00 14.8 0 Calma -- -- 0 1023.3 0.1 60
2020-01-08 18:00:00 17.7 4 Norte -- -- 0 1023.3 -0.3 52
2020-01-08 17:00:00 18.5 5 Nordeste 15 Nordeste 0 1023.3 -1.1 44
2020-01-08 16:00:00 18.1 8 Nordeste 15 Nordeste 0 1023.2 -2 41
2020-01-08 15:00:00 17.7 8 Este 18 Nordeste 0 1023.6 -2.6 45
2020-01-08 14:00:00 16 10 Nordeste 18 Nordeste 0 1024.4 -2.2 51
2020-01-08 13:00:00 13.6 11 Nordeste 21 Nordeste 0 1025.2 -0.9 61
2020-01-08 12:00:00 11.3 15 Nordeste 22 Nordeste 0 1026.2 0.6 68
2020-01-08 11:00:00 9.3 15 Nordeste 22 Nordeste 0 1026.6 1.2 76
2020-01-08 10:00:00 6.9 11 Nordeste 17 Nordeste 0 1026.1 0.8 86
2020-01-08 09:00:00 5.3 13 Nordeste 17 Nordeste 0 1025.6 0.2 92
2020-01-08 08:00:00 5.3 8 Norte 11 Norte 0 1025.4 -0.1 91
2020-01-08 07:00:00 5.6 10 Nordeste 13 Nordeste 0 1025.3 -0.3 92
2020-01-08 06:00:00 5.2 10 Nordeste 13 Nordeste 0 1025.4 -0.3 93
2020-01-08 05:00:00 4.9 7 Norte 9 Norte 0 1025.5 -0.2 93
2020-01-08 04:00:00 5.3 3 Norte 5 Norte 0 1025.6 -0.2 92
2020-01-08 03:00:00 5.8 0 Calma 5 Nordeste 0 1025.7 -0.6 91
2020-01-08 02:00:00 6.4 -- -- -- -- 0 1025.7 -0.8 92
2020-01-08 01:00:00 6.4 0 Calma 4 Noroeste 0 1025.8 -0.6 89
2020-01-08 00:00:00 7 0 Calma 4 Noroeste 0 1026.3 0.1 89
2020-01-07 23:00:00 7.7 0 Calma 5 Nordeste 0 1026.5 0.4 86
2020-01-07 22:00:00 8.6 3 Norte 8 Sudeste 0 1026.4 0.7 84
2020-01-07 21:00:00 9.8 4 Sudeste -- -- 0 1026.2 0.6 80
2020-01-07 20:00:00 11.5 -- -- -- -- 0 1026.1 0.5 75
2020-01-07 19:00:00 14.4 0 Calma 11 Norte 0 1025.7 0.1 62
2020-01-07 18:00:00 17.7 2 Norte 9 Nordeste 0 1025.6 -0.4 46
2020-01-07 17:00:00 18.1 5 Nordeste 13 Nordeste 0 1025.6 -0.8 46
2020-01-07 16:00:00 17.3 6 Nordeste 18 Este 0 1025.6 -1.7 49
2020-01-07 15:00:00 16.3 11 Nordeste 17 Este 0 1026 -2.2 53
2020-01-07 14:00:00 14.8 11 Nordeste 22 Nordeste 0 1026.4 -1.7 57
2020-01-07 13:00:00 13.9 14 Nordeste 32 Nordeste 0 1027.3 -0.6 61
2020-01-07 12:00:00 11.2 17 Nordeste 26 Nordeste 0 1028.2 0.6 72
2020-01-07 11:00:00 9.3 15 Nordeste 21 Nordeste 0 1028.1 0.8 78
2020-01-07 10:00:00 6.8 10 Nordeste 17 Nordeste 0 1027.9 0.8 88
2020-01-07 09:00:00 5 11 Nordeste 17 Nordeste 0 1027.6 0.5 93
2020-01-07 08:00:00 5.1 13 Nordeste 21 Nordeste 0 1027.3 0.2 93
2020-01-07 07:00:00 5.9 8 Nordeste 15 Nordeste 0 1027.1 0.3 91
2020-01-07 06:00:00 6.2 10 Nordeste 18 Nordeste 0 1027.1 0.5 92
2020-01-07 05:00:00 6 11 Nordeste 13 Nordeste 0 1027.1 0.3 93
2020-01-07 04:00:00 5.7 0 Calma 9 Este 0 1026.8 0 91
2020-01-07 03:00:00 6.8 7 Este 9 Este 0 1026.6 -0.4 90
2020-01-07 02:00:00 7.7 6 Norte 13 Nordeste 0 1026.8 -0.1 89
2020-01-07 01:00:00 7.8 3 Este 13 Nordeste 0 1026.8 0.4 88
2020-01-07 00:00:00 8.3 5 Nordeste 13 Este 0 1027 1.3 86
2020-01-06 23:00:00 8.2 2 Norte 11 Noroeste 0 1026.9 1.3 88
2020-01-06 22:00:00 8.4 4 Este 5 Este 0 1026.4 1.5 88
2020-01-06 21:00:00 9 4 Este 11 Sudeste 0 1025.7 1.3 87
2020-01-06 20:00:00 10.7 0 Calma 9 Norte 0 1025.6 1.2 80
2020-01-06 19:00:00 12.5 3 Este 11 Norte 0 1024.9 0.9 71
2020-01-06 18:00:00 16.1 2 Norte 17 Noroeste 0 1024.4 0 55
2020-01-06 17:00:00 16.9 4 Oeste 9 Sudoeste 0 1024.4 -0.8 52
2020-01-06 16:00:00 16.8 4 Sur 8 Sur 0 1024 -2.5 52
2020-01-06 15:00:00 15.6 0 Calma 13 Nordeste 0 1024.4 -2.8 51
2020-01-06 14:00:00 13.8 8 Nordeste 15 Nordeste 0 1025.2 -2 67
2020-01-06 13:00:00 12.2 10 Nordeste 17 Nordeste 0 1026.5 0.2 73
2020-01-06 12:00:00 10.6 10 Nordeste 17 Norte 0 1027.2 1.5 77
2020-01-06 11:00:00 8.7 10 Norte 17 Nordeste 0 1027.2 1.9 86
2020-01-06 10:00:00 6.6 8 Nordeste 11 Nordeste 0 1026.3 1.5 92